GIA551 WAGG-WIII
Flight info
| Callsign | GIA551 |
|---|---|
| Flight time | N/A |
| Altitude | 34000 |
| Route | LAMUD W15 EGUKO |
| Aircraft | B738/M-SDE2E3FGHIRWXY/LB1 |
Departure
| Time | 2026-04-29 01:06 |
|---|---|
| Airport | Tjilik Riwut Airport (WAGG) |
Arrival
| Time | N/A |
|---|---|
| Airport | Soekarno-Hatta International Airport (WIII) |
| Time | Latitude | Longitude | Altitude | Speed | Heading |
|---|---|---|---|---|---|
| 2026-04-29 00:52 | -2.23248 | 113.94796 | 49 ft | 0 kts | 70° |
| 2026-04-29 00:59 | -2.23251 | 113.94786 | 49 ft | 2 kts | 69° |
| 2026-04-29 00:59 | -2.23257 | 113.94773 | 49 ft | 2 kts | 70° |
| 2026-04-29 00:59 | -2.23260 | 113.94759 | 49 ft | 2 kts | 91° |
| 2026-04-29 01:00 | -2.23258 | 113.94744 | 49 ft | 2 kts | 110° |
| 2026-04-29 01:00 | -2.23251 | 113.94731 | 49 ft | 2 kts | 133° |
| 2026-04-29 01:00 | -2.23239 | 113.94722 | 49 ft | 1 kts | 154° |
| 2026-04-29 01:00 | -2.23233 | 113.94720 | 49 ft | 1 kts | 160° |
| 2026-04-29 01:01 | -2.23231 | 113.94719 | 49 ft | 0 kts | 159° |
| 2026-04-29 01:02 | -2.23232 | 113.94719 | 49 ft | 0 kts | 159° |
| 2026-04-29 01:02 | -2.23246 | 113.94724 | 49 ft | 6 kts | 159° |
| 2026-04-29 01:03 | -2.23295 | 113.94737 | 50 ft | 6 kts | 193° |
| 2026-04-29 01:03 | -2.23319 | 113.94712 | 51 ft | 3 kts | 244° |
| 2026-04-29 01:03 | -2.23331 | 113.94686 | 52 ft | 5 kts | 247° |
| 2026-04-29 01:03 | -2.23353 | 113.94630 | 52 ft | 12 kts | 245° |
| 2026-04-29 01:04 | -2.23429 | 113.94613 | 52 ft | 12 kts | 159° |
| 2026-04-29 01:04 | -2.23518 | 113.94647 | 52 ft | 15 kts | 159° |
| 2026-04-29 01:04 | -2.23625 | 113.94688 | 54 ft | 17 kts | 159° |
| 2026-04-29 01:04 | -2.23737 | 113.94747 | 55 ft | 16 kts | 143° |
| 2026-04-29 01:05 | -2.23769 | 113.94756 | 55 ft | 0 kts | 271° |
| 2026-04-29 01:05 | -2.23765 | 113.94749 | 55 ft | 2 kts | 307° |
| 2026-04-29 01:05 | -2.23692 | 113.94713 | 55 ft | 38 kts | 340° |
| 2026-04-29 01:05 | -2.23181 | 113.94518 | 52 ft | 114 kts | 339° |
| 2026-04-29 01:06 | -2.22231 | 113.94150 | 72 ft | 173 kts | 339° |
| 2026-04-29 01:06 | -2.21070 | 113.93709 | 656 ft | 184 kts | 341° |
| 2026-04-29 01:06 | -2.19869 | 113.93259 | 1334 ft | 189 kts | 341° |
| 2026-04-29 01:06 | -2.18594 | 113.92774 | 1804 ft | 201 kts | 341° |
| 2026-04-29 01:07 | -2.17235 | 113.92252 | 2231 ft | 216 kts | 341° |
| 2026-04-29 01:07 | -2.15792 | 113.91629 | 2600 ft | 237 kts | 332° |
| 2026-04-29 01:07 | -2.14497 | 113.90527 | 3148 ft | 253 kts | 308° |
| 2026-04-29 01:07 | -2.13681 | 113.88909 | 3687 ft | 270 kts | 287° |
| 2026-04-29 01:08 | -2.13460 | 113.87060 | 4372 ft | 278 kts | 268° |
| 2026-04-29 01:08 | -2.13961 | 113.85179 | 5097 ft | 284 kts | 242° |
| 2026-04-29 01:08 | -2.15130 | 113.83618 | 5864 ft | 286 kts | 229° |
| 2026-04-29 01:08 | -2.16500 | 113.82153 | 6584 ft | 290 kts | 227° |
| 2026-04-29 01:09 | -2.17899 | 113.80685 | 7323 ft | 292 kts | 227° |
| 2026-04-29 01:09 | -2.19280 | 113.79211 | 8026 ft | 295 kts | 227° |
| 2026-04-29 01:09 | -2.20676 | 113.77692 | 8735 ft | 298 kts | 227° |
| 2026-04-29 01:09 | -2.22072 | 113.76160 | 9417 ft | 301 kts | 227° |
| 2026-04-29 01:10 | -2.23490 | 113.74602 | 9883 ft | 306 kts | 227° |
| 2026-04-29 01:10 | -2.24942 | 113.73019 | 9991 ft | 308 kts | 226° |
| 2026-04-29 01:10 | -2.26379 | 113.71458 | 9997 ft | 305 kts | 226° |
| 2026-04-29 01:10 | -2.27819 | 113.69895 | 9997 ft | 305 kts | 226° |
| 2026-04-29 01:11 | -2.29261 | 113.68330 | 9995 ft | 305 kts | 226° |
| 2026-04-29 01:11 | -2.30701 | 113.66765 | 9995 ft | 305 kts | 227° |
| 2026-04-29 01:11 | -2.32138 | 113.65202 | 9996 ft | 305 kts | 226° |
| 2026-04-29 01:11 | -2.33582 | 113.63631 | 9996 ft | 305 kts | 226° |
| 2026-04-29 01:12 | -2.35017 | 113.62070 | 9993 ft | 305 kts | 227° |
| 2026-04-29 01:12 | -2.36449 | 113.60513 | 9992 ft | 304 kts | 226° |
| 2026-04-29 01:12 | -2.37886 | 113.58949 | 9992 ft | 306 kts | 226° |
| 2026-04-29 01:12 | -2.39334 | 113.57372 | 9993 ft | 305 kts | 227° |
| 2026-04-29 01:13 | -2.40770 | 113.55810 | 9994 ft | 305 kts | 226° |
| 2026-04-29 01:13 | -2.42199 | 113.54255 | 9994 ft | 304 kts | 226° |
| 2026-04-29 01:13 | -2.43638 | 113.52689 | 9992 ft | 305 kts | 226° |
| 2026-04-29 01:13 | -2.45083 | 113.51118 | 9992 ft | 304 kts | 226° |
| 2026-04-29 01:14 | -2.46406 | 113.49475 | 9993 ft | 307 kts | 236° |
| 2026-04-29 01:14 | -2.47499 | 113.47549 | 10198 ft | 326 kts | 243° |
| 2026-04-29 01:14 | -2.48495 | 113.45470 | 10516 ft | 342 kts | 245° |
| 2026-04-29 01:14 | -2.49515 | 113.43256 | 10865 ft | 356 kts | 245° |
| 2026-04-29 01:15 | -2.50561 | 113.41009 | 11409 ft | 362 kts | 244° |
| 2026-04-29 01:15 | -2.51638 | 113.38738 | 12014 ft | 367 kts | 244° |
| 2026-04-29 01:15 | -2.52759 | 113.36404 | 12684 ft | 371 kts | 244° |
| 2026-04-29 01:15 | -2.53878 | 113.34094 | 13306 ft | 375 kts | 243° |
| 2026-04-29 01:16 | -2.55023 | 113.31742 | 13939 ft | 379 kts | 243° |
| 2026-04-29 01:16 | -2.56174 | 113.29383 | 14582 ft | 382 kts | 243° |
| 2026-04-29 01:16 | -2.57353 | 113.26963 | 15199 ft | 387 kts | 243° |
| 2026-04-29 01:16 | -2.58528 | 113.24551 | 15823 ft | 391 kts | 243° |
| 2026-04-29 01:17 | -2.59729 | 113.22086 | 16419 ft | 395 kts | 243° |
| 2026-04-29 01:17 | -2.60939 | 113.19598 | 16982 ft | 400 kts | 243° |
| 2026-04-29 01:17 | -2.62161 | 113.17089 | 17557 ft | 403 kts | 243° |
| 2026-04-29 01:17 | -2.63392 | 113.14560 | 18083 ft | 408 kts | 243° |
| 2026-04-29 01:18 | -2.64626 | 113.12022 | 18653 ft | 411 kts | 243° |
| 2026-04-29 01:18 | -2.67141 | 113.06856 | 19724 ft | 418 kts | 243° |
| 2026-04-29 01:18 | -2.68409 | 113.04250 | 20212 ft | 422 kts | 243° |
| 2026-04-29 01:19 | -2.69701 | 113.01596 | 20716 ft | 425 kts | 243° |
| 2026-04-29 01:19 | -2.70998 | 112.98931 | 21182 ft | 430 kts | 244° |
| 2026-04-29 01:19 | -2.72310 | 112.96235 | 21685 ft | 432 kts | 243° |
| 2026-04-29 01:19 | -2.73630 | 112.93520 | 22128 ft | 437 kts | 244° |
| 2026-04-29 01:20 | -2.74964 | 112.90776 | 22615 ft | 439 kts | 243° |
| 2026-04-29 01:20 | -2.76300 | 112.88027 | 23160 ft | 441 kts | 243° |
| 2026-04-29 01:20 | -2.77632 | 112.85289 | 23598 ft | 444 kts | 243° |
| 2026-04-29 01:20 | -2.78987 | 112.82501 | 24119 ft | 445 kts | 243° |
| 2026-04-29 01:21 | -2.80354 | 112.79690 | 24556 ft | 449 kts | 243° |
| 2026-04-29 01:21 | -2.81718 | 112.76882 | 24992 ft | 451 kts | 243° |
| 2026-04-29 01:21 | -2.83087 | 112.74067 | 25427 ft | 454 kts | 243° |
| 2026-04-29 01:21 | -2.84472 | 112.71217 | 25852 ft | 457 kts | 243° |
| 2026-04-29 01:22 | -2.85869 | 112.68343 | 26258 ft | 460 kts | 243° |
| 2026-04-29 01:22 | -2.87254 | 112.65493 | 26672 ft | 462 kts | 243° |
| 2026-04-29 01:22 | -2.88661 | 112.62598 | 27127 ft | 463 kts | 243° |
| 2026-04-29 01:22 | -2.90080 | 112.59676 | 27494 ft | 467 kts | 243° |
| 2026-04-29 01:23 | -2.91499 | 112.56755 | 27888 ft | 469 kts | 243° |
| 2026-04-29 01:23 | -2.92919 | 112.53829 | 28271 ft | 471 kts | 243° |
| 2026-04-29 01:23 | -2.94346 | 112.50890 | 28683 ft | 473 kts | 243° |
| 2026-04-29 01:23 | -2.95803 | 112.47890 | 29094 ft | 474 kts | 243° |
| 2026-04-29 01:24 | -2.97220 | 112.44970 | 29707 ft | 471 kts | 243° |
| 2026-04-29 01:24 | -2.98650 | 112.42022 | 30264 ft | 468 kts | 243° |
| 2026-04-29 01:24 | -3.00059 | 112.39118 | 30748 ft | 467 kts | 243° |
| 2026-04-29 01:24 | -3.01471 | 112.36209 | 31192 ft | 466 kts | 243° |
| 2026-04-29 01:25 | -3.02881 | 112.33303 | 31661 ft | 465 kts | 243° |
| 2026-04-29 01:25 | -3.04293 | 112.30392 | 32105 ft | 464 kts | 243° |
| 2026-04-29 01:25 | -3.05688 | 112.27506 | 32508 ft | 463 kts | 243° |
| 2026-04-29 01:25 | -3.07100 | 112.24577 | 32951 ft | 462 kts | 243° |
| 2026-04-29 01:26 | -3.08482 | 112.21706 | 33464 ft | 460 kts | 243° |
| 2026-04-29 01:26 | -3.09871 | 112.18817 | 33916 ft | 458 kts | 243° |
| 2026-04-29 01:26 | -3.12637 | 112.13064 | 33975 ft | 460 kts | 243° |
| 2026-04-29 01:27 | -3.15418 | 112.07275 | 33976 ft | 457 kts | 243° |
| 2026-04-29 01:27 | -3.18180 | 112.01528 | 33975 ft | 458 kts | 243° |
| 2026-04-29 01:28 | -3.20926 | 111.95820 | 33975 ft | 458 kts | 243° |
| 2026-04-29 01:28 | -3.23694 | 111.90066 | 33974 ft | 458 kts | 243° |
| 2026-04-29 01:29 | -3.26453 | 111.84328 | 33972 ft | 457 kts | 243° |
| 2026-04-29 01:29 | -3.29195 | 111.78625 | 33972 ft | 457 kts | 243° |
| 2026-04-29 01:30 | -3.31952 | 111.72890 | 33972 ft | 457 kts | 243° |
| 2026-04-29 01:30 | -3.34703 | 111.67165 | 33972 ft | 458 kts | 243° |
| 2026-04-29 01:31 | -3.37458 | 111.61433 | 33971 ft | 457 kts | 243° |
| 2026-04-29 01:31 | -3.40209 | 111.55706 | 33971 ft | 457 kts | 244° |
| 2026-04-29 01:32 | -3.42968 | 111.49961 | 33972 ft | 457 kts | 244° |
| 2026-04-29 01:32 | -3.45716 | 111.44237 | 33972 ft | 455 kts | 244° |
| 2026-04-29 01:33 | -3.48457 | 111.38528 | 33972 ft | 456 kts | 244° |
| 2026-04-29 01:33 | -3.51198 | 111.32819 | 33971 ft | 456 kts | 244° |
| 2026-04-29 01:34 | -3.53932 | 111.27124 | 33972 ft | 457 kts | 244° |
| 2026-04-29 01:34 | -3.56684 | 111.21390 | 33972 ft | 457 kts | 244° |
| 2026-04-29 01:35 | -3.59433 | 111.15662 | 33972 ft | 455 kts | 244° |
| 2026-04-29 01:35 | -3.62150 | 111.09997 | 33972 ft | 455 kts | 244° |
| 2026-04-29 01:36 | -3.64904 | 111.04256 | 33973 ft | 455 kts | 244° |
| 2026-04-29 01:36 | -3.67648 | 110.98534 | 33972 ft | 456 kts | 244° |
| 2026-04-29 01:37 | -3.70368 | 110.92860 | 33973 ft | 456 kts | 244° |
| 2026-04-29 01:37 | -3.73122 | 110.87114 | 33976 ft | 457 kts | 244° |
| 2026-04-29 01:38 | -3.75864 | 110.81393 | 33977 ft | 455 kts | 244° |
| 2026-04-29 01:38 | -3.78594 | 110.75694 | 33975 ft | 455 kts | 244° |
| 2026-04-29 01:39 | -3.81328 | 110.69989 | 33976 ft | 455 kts | 244° |
| 2026-04-29 01:39 | -3.84066 | 110.64272 | 33973 ft | 456 kts | 244° |
| 2026-04-29 01:40 | -3.86799 | 110.58566 | 33973 ft | 456 kts | 244° |
| 2026-04-29 01:40 | -3.89550 | 110.52819 | 33972 ft | 457 kts | 244° |
| 2026-04-29 01:41 | -3.92289 | 110.47098 | 33972 ft | 456 kts | 244° |
| 2026-04-29 01:41 | -3.95011 | 110.41410 | 33972 ft | 455 kts | 244° |
| 2026-04-29 01:42 | -3.97749 | 110.35688 | 33972 ft | 455 kts | 244° |
| 2026-04-29 01:42 | -4.00475 | 110.29988 | 33972 ft | 455 kts | 244° |
| 2026-04-29 01:43 | -4.03213 | 110.24261 | 33972 ft | 456 kts | 244° |
| 2026-04-29 01:43 | -4.05939 | 110.18560 | 33973 ft | 457 kts | 244° |
| 2026-04-29 01:44 | -4.08696 | 110.12791 | 33972 ft | 456 kts | 244° |
| 2026-04-29 01:44 | -4.11422 | 110.07085 | 33973 ft | 456 kts | 244° |
| 2026-04-29 01:45 | -4.14150 | 110.01375 | 33972 ft | 455 kts | 244° |
| 2026-04-29 01:45 | -4.16893 | 109.95631 | 33971 ft | 455 kts | 244° |
| 2026-04-29 01:46 | -4.19630 | 109.89899 | 33972 ft | 457 kts | 244° |
| 2026-04-29 01:46 | -4.22354 | 109.84193 | 33970 ft | 456 kts | 244° |
| 2026-04-29 01:47 | -4.25104 | 109.78432 | 33970 ft | 456 kts | 244° |
| 2026-04-29 01:47 | -4.27843 | 109.72694 | 33971 ft | 457 kts | 244° |
| 2026-04-29 01:48 | -4.30565 | 109.66988 | 33973 ft | 456 kts | 244° |
| 2026-04-29 01:48 | -4.33303 | 109.61247 | 33971 ft | 457 kts | 244° |
| 2026-04-29 01:49 | -4.36033 | 109.55523 | 33971 ft | 457 kts | 244° |
| 2026-04-29 01:49 | -4.38765 | 109.49791 | 33974 ft | 456 kts | 244° |
| 2026-04-29 01:50 | -4.41512 | 109.44028 | 33969 ft | 456 kts | 244° |
| 2026-04-29 01:50 | -4.44231 | 109.38322 | 33973 ft | 456 kts | 244° |
| 2026-04-29 01:51 | -4.46970 | 109.32574 | 33970 ft | 456 kts | 244° |
| 2026-04-29 01:51 | -4.49705 | 109.26830 | 33971 ft | 456 kts | 244° |
| 2026-04-29 01:52 | -4.52425 | 109.21121 | 33971 ft | 456 kts | 244° |
| 2026-04-29 01:52 | -4.55159 | 109.15378 | 33970 ft | 456 kts | 243° |
| 2026-04-29 01:53 | -4.57882 | 109.09658 | 33971 ft | 456 kts | 243° |
| 2026-04-29 01:53 | -4.60610 | 109.03925 | 33974 ft | 456 kts | 244° |
| 2026-04-29 01:54 | -4.63326 | 108.98214 | 33981 ft | 455 kts | 243° |
| 2026-04-29 01:54 | -4.66058 | 108.92471 | 33992 ft | 454 kts | 243° |
| 2026-04-29 01:55 | -4.68774 | 108.86765 | 33992 ft | 455 kts | 243° |
| 2026-04-29 01:55 | -4.72044 | 108.81397 | 33989 ft | 452 kts | 226° |
| 2026-04-29 01:56 | -4.76933 | 108.77458 | 33993 ft | 448 kts | 212° |
| 2026-04-29 01:56 | -4.82160 | 108.74105 | 33991 ft | 447 kts | 210° |
| 2026-04-29 01:57 | -4.87468 | 108.70782 | 33985 ft | 447 kts | 210° |
| 2026-04-29 01:57 | -4.92703 | 108.67451 | 33979 ft | 446 kts | 211° |
| 2026-04-29 01:58 | -4.97926 | 108.64078 | 33980 ft | 446 kts | 211° |
| 2026-04-29 01:58 | -5.03153 | 108.60678 | 33983 ft | 446 kts | 211° |
| 2026-04-29 01:59 | -5.08354 | 108.57285 | 33981 ft | 446 kts | 211° |
| 2026-04-29 01:59 | -5.13557 | 108.53885 | 33981 ft | 446 kts | 212° |
| 2026-04-29 02:00 | -5.18759 | 108.50484 | 33978 ft | 446 kts | 212° |
| 2026-04-29 02:00 | -5.23955 | 108.47086 | 33972 ft | 446 kts | 212° |
| 2026-04-29 02:01 | -5.29169 | 108.43677 | 33972 ft | 447 kts | 212° |
| 2026-04-29 02:01 | -5.34104 | 108.39908 | 33968 ft | 449 kts | 230° |
| 2026-04-29 02:02 | -5.35799 | 108.37232 | 33983 ft | 452 kts | 242° |
| 2026-04-29 02:02 | -5.37166 | 108.34393 | 33971 ft | 452 kts | 245° |
| 2026-04-29 02:02 | -5.39658 | 108.28635 | 33973 ft | 451 kts | 246° |
| 2026-04-29 02:03 | -5.42133 | 108.22862 | 33973 ft | 450 kts | 246° |
| 2026-04-29 02:03 | -5.44643 | 108.17144 | 33974 ft | 449 kts | 245° |
| 2026-04-29 02:04 | -5.47207 | 108.11414 | 33973 ft | 449 kts | 245° |
| 2026-04-29 02:04 | -5.49750 | 108.05788 | 33576 ft | 438 kts | 245° |
| 2026-04-29 02:05 | -5.51006 | 108.03018 | 33158 ft | 432 kts | 245° |
| 2026-04-29 02:05 | -5.52244 | 108.00293 | 32676 ft | 428 kts | 245° |
| 2026-04-29 02:05 | -5.53477 | 107.97581 | 32194 ft | 425 kts | 245° |
| 2026-04-29 02:05 | -5.54693 | 107.94906 | 31703 ft | 423 kts | 245° |
| 2026-04-29 02:06 | -5.55908 | 107.92233 | 31200 ft | 421 kts | 245° |
| 2026-04-29 02:06 | -5.57124 | 107.89558 | 30693 ft | 418 kts | 245° |
| 2026-04-29 02:06 | -5.58313 | 107.86944 | 30195 ft | 416 kts | 245° |
| 2026-04-29 02:06 | -5.59521 | 107.84287 | 29689 ft | 414 kts | 245° |
| 2026-04-29 02:07 | -5.60700 | 107.81692 | 29189 ft | 412 kts | 245° |
| 2026-04-29 02:07 | -5.61882 | 107.79092 | 28692 ft | 410 kts | 245° |
| 2026-04-29 02:07 | -5.63061 | 107.76496 | 28209 ft | 408 kts | 245° |
| 2026-04-29 02:07 | -5.64239 | 107.73904 | 27708 ft | 406 kts | 245° |
| 2026-04-29 02:08 | -5.65401 | 107.71347 | 27219 ft | 404 kts | 245° |
| 2026-04-29 02:08 | -5.66569 | 107.68778 | 26722 ft | 402 kts | 245° |
| 2026-04-29 02:08 | -5.67724 | 107.66235 | 26230 ft | 400 kts | 245° |
| 2026-04-29 02:08 | -5.68878 | 107.63693 | 25744 ft | 399 kts | 245° |
| 2026-04-29 02:09 | -5.70020 | 107.61179 | 25259 ft | 397 kts | 245° |
| 2026-04-29 02:09 | -5.71151 | 107.58689 | 24776 ft | 395 kts | 245° |
| 2026-04-29 02:09 | -5.72290 | 107.56181 | 24292 ft | 393 kts | 245° |
| 2026-04-29 02:09 | -5.73413 | 107.53706 | 23809 ft | 391 kts | 245° |
| 2026-04-29 02:10 | -5.74543 | 107.51216 | 23325 ft | 390 kts | 245° |
| 2026-04-29 02:10 | -5.75661 | 107.48753 | 22844 ft | 388 kts | 245° |
| 2026-04-29 02:10 | -5.76772 | 107.46304 | 22366 ft | 386 kts | 245° |
| 2026-04-29 02:10 | -5.77884 | 107.43852 | 21896 ft | 385 kts | 245° |
| 2026-04-29 02:11 | -5.79001 | 107.41390 | 21417 ft | 389 kts | 246° |
| 2026-04-29 02:11 | -5.80123 | 107.38915 | 20931 ft | 391 kts | 246° |
| 2026-04-29 02:11 | -5.81253 | 107.36423 | 20437 ft | 393 kts | 246° |
| 2026-04-29 02:11 | -5.82390 | 107.33916 | 19944 ft | 395 kts | 246° |
| 2026-04-29 02:12 | -5.83515 | 107.31435 | 19453 ft | 396 kts | 246° |
| 2026-04-29 02:12 | -5.84654 | 107.28925 | 18949 ft | 398 kts | 246° |
| 2026-04-29 02:12 | -5.85812 | 107.26366 | 18443 ft | 399 kts | 246° |
| 2026-04-29 02:12 | -5.86958 | 107.23836 | 17942 ft | 400 kts | 246° |
| 2026-04-29 02:13 | -5.88103 | 107.21305 | 17433 ft | 401 kts | 246° |
| 2026-04-29 02:13 | -5.89256 | 107.18759 | 16922 ft | 402 kts | 246° |
| 2026-04-29 02:13 | -5.90408 | 107.16215 | 16413 ft | 403 kts | 246° |
| 2026-04-29 02:13 | -5.91579 | 107.13629 | 15903 ft | 403 kts | 246° |
| 2026-04-29 02:14 | -5.92726 | 107.11097 | 15393 ft | 403 kts | 246° |
| 2026-04-29 02:14 | -5.93883 | 107.08541 | 14879 ft | 403 kts | 246° |
| 2026-04-29 02:14 | -5.95007 | 107.05965 | 14360 ft | 403 kts | 250° |
| 2026-04-29 02:14 | -5.95828 | 107.03298 | 14012 ft | 392 kts | 260° |
| 2026-04-29 02:15 | -5.96183 | 107.00645 | 13665 ft | 382 kts | 268° |
| 2026-04-29 02:15 | -5.96282 | 106.97998 | 13195 ft | 378 kts | 271° |
| 2026-04-29 02:15 | -5.96264 | 106.95357 | 12716 ft | 373 kts | 273° |
| 2026-04-29 02:15 | -5.96211 | 106.92806 | 12332 ft | 367 kts | 273° |
| 2026-04-29 02:16 | -5.96157 | 106.90264 | 11878 ft | 364 kts | 273° |
| 2026-04-29 02:16 | -5.96115 | 106.87735 | 11417 ft | 361 kts | 272° |
| 2026-04-29 02:16 | -5.96087 | 106.85233 | 10955 ft | 358 kts | 272° |
| 2026-04-29 02:16 | -5.96070 | 106.82714 | 10483 ft | 356 kts | 272° |
| 2026-04-29 02:17 | -5.96077 | 106.80248 | 10065 ft | 352 kts | 269° |
| 2026-04-29 02:17 | -5.96375 | 106.77881 | 9945 ft | 340 kts | 258° |
| 2026-04-29 02:17 | -5.97082 | 106.75657 | 9832 ft | 328 kts | 249° |
| 2026-04-29 02:17 | -5.97973 | 106.73567 | 9730 ft | 315 kts | 246° |
| 2026-04-29 02:18 | -5.98859 | 106.71622 | 9642 ft | 304 kts | 246° |
| 2026-04-29 02:18 | -5.99710 | 106.69714 | 9440 ft | 297 kts | 247° |
| 2026-04-29 02:18 | -6.00526 | 106.67805 | 9111 ft | 295 kts | 248° |
| 2026-04-29 02:18 | -6.01310 | 106.65905 | 8763 ft | 295 kts | 248° |
| 2026-04-29 02:19 | -6.02082 | 106.63998 | 8434 ft | 294 kts | 248° |
| 2026-04-29 02:19 | -6.02847 | 106.62103 | 8101 ft | 292 kts | 248° |
| 2026-04-29 02:19 | -6.03602 | 106.60229 | 7869 ft | 287 kts | 248° |
| 2026-04-29 02:19 | -6.04337 | 106.58407 | 7758 ft | 277 kts | 248° |
| 2026-04-29 02:20 | -6.05048 | 106.56646 | 7620 ft | 269 kts | 248° |
| 2026-04-29 02:20 | -6.05751 | 106.54901 | 7385 ft | 266 kts | 248° |
| 2026-04-29 02:20 | -6.06442 | 106.53190 | 7083 ft | 266 kts | 248° |
| 2026-04-29 02:20 | -6.07143 | 106.51454 | 6797 ft | 265 kts | 248° |
| 2026-04-29 02:21 | -6.07830 | 106.49751 | 6506 ft | 264 kts | 248° |
| 2026-04-29 02:21 | -6.08516 | 106.48050 | 6236 ft | 262 kts | 248° |
| 2026-04-29 02:21 | -6.09197 | 106.46363 | 6061 ft | 256 kts | 248° |
| 2026-04-29 02:21 | -6.09867 | 106.44739 | 5883 ft | 251 kts | 244° |
| 2026-04-29 02:22 | -6.10769 | 106.43253 | 5573 ft | 250 kts | 224° |
| 2026-04-29 02:22 | -6.12243 | 106.42374 | 5286 ft | 243 kts | 188° |
| 2026-04-29 02:22 | -6.13896 | 106.42385 | 5013 ft | 235 kts | 166° |
| 2026-04-29 02:22 | -6.15482 | 106.42756 | 4705 ft | 234 kts | 158° |
| 2026-04-29 02:23 | -6.16901 | 106.43497 | 4421 ft | 228 kts | 134° |
| 2026-04-29 02:23 | -6.17744 | 106.44808 | 4110 ft | 223 kts | 101° |
| 2026-04-29 02:23 | -6.17935 | 106.46333 | 3935 ft | 216 kts | 92° |
| 2026-04-29 02:23 | -6.18042 | 106.47843 | 3936 ft | 219 kts | 91° |
| 2026-04-29 02:24 | -6.17938 | 106.49335 | 3934 ft | 207 kts | 75° |
| 2026-04-29 02:24 | -6.17476 | 106.50629 | 3927 ft | 190 kts | 67° |
| 2026-04-29 02:24 | -6.16967 | 106.51802 | 3909 ft | 176 kts | 68° |
| 2026-04-29 02:25 | -6.16058 | 106.54064 | 3910 ft | 176 kts | 68° |
| 2026-04-29 02:25 | -6.15597 | 106.55217 | 3886 ft | 177 kts | 68° |
| 2026-04-29 02:25 | -6.15141 | 106.56350 | 3891 ft | 176 kts | 68° |
| 2026-04-29 02:25 | -6.14684 | 106.57490 | 3871 ft | 176 kts | 68° |
| 2026-04-29 02:26 | -6.14217 | 106.58657 | 3492 ft | 184 kts | 68° |
| 2026-04-29 02:26 | -6.13722 | 106.59884 | 3075 ft | 191 kts | 68° |
| 2026-04-29 02:26 | -6.13272 | 106.61083 | 2999 ft | 178 kts | 69° |
| 2026-04-29 02:26 | -6.12827 | 106.62255 | 2775 ft | 179 kts | 70° |